createdAt,value
2017-11-10T00:00:23.607Z,59.70
2017-11-10T00:01:23.638Z,58.80
2017-11-10T00:02:23.667Z,56.60
2017-11-10T00:03:23.697Z,65.80
2017-11-10T00:04:23.727Z,65.80
2017-11-10T00:05:23.758Z,64.20
2017-11-10T00:06:23.788Z,57.80
2017-11-10T00:07:23.818Z,65.20
2017-11-10T00:08:23.849Z,65.50
2017-11-10T00:09:23.877Z,58.80
2017-11-10T00:10:23.908Z,65.30
2017-11-10T00:11:23.941Z,53.60
2017-11-10T00:12:23.968Z,64.00
2017-11-10T00:13:23.998Z,63.00
2017-11-10T00:14:24.028Z,64.00
2017-11-10T00:15:24.062Z,65.60
2017-11-10T00:16:24.087Z,65.30
2017-11-10T00:17:24.118Z,64.80
2017-11-10T00:18:24.153Z,70.30
2017-11-10T00:19:24.177Z,65.60
2017-11-10T00:20:24.207Z,64.30
2017-11-10T00:21:24.240Z,66.90
2017-11-10T00:22:24.266Z,68.20
2017-11-10T00:23:24.297Z,65.00
2017-11-10T00:24:24.327Z,62.40
2017-11-10T00:25:24.356Z,72.50
2017-11-10T00:26:24.436Z,73.00
2017-11-10T00:27:24.423Z,70.40
2017-11-10T00:28:24.445Z,71.10
2017-11-10T00:29:24.476Z,73.30
2017-11-10T00:30:24.509Z,70.20
2017-11-10T00:31:24.535Z,80.80
2017-11-10T00:32:24.564Z,77.80
2017-11-10T00:33:24.594Z,84.40
2017-11-10T00:34:24.625Z,77.20
2017-11-10T00:35:24.653Z,78.30
2017-11-10T00:36:24.684Z,76.50
2017-11-10T00:37:24.713Z,78.70
2017-11-10T00:38:24.744Z,70.80
2017-11-10T00:39:24.773Z,69.60
2017-11-10T00:40:24.809Z,79.10
2017-11-10T00:41:24.832Z,81.00
2017-11-10T00:42:24.863Z,81.50
2017-11-10T00:43:24.893Z,79.50
2017-11-10T00:44:24.938Z,87.30
2017-11-10T00:45:24.960Z,84.50
2017-11-10T00:46:24.983Z,78.90
2017-11-10T00:47:25.010Z,69.00
2017-11-10T00:48:25.067Z,68.80
2017-11-10T00:49:25.076Z,81.50
2017-11-10T00:50:25.102Z,82.40
2017-11-10T00:51:25.203Z,91.60
2017-11-10T00:52:25.160Z,95.20
2017-11-10T00:53:25.191Z,90.90
2017-11-10T00:54:25.221Z,92.50
2017-11-10T00:55:25.254Z,87.50
2017-11-10T00:56:25.280Z,85.60
2017-11-10T00:57:25.312Z,92.90
2017-11-10T00:58:25.340Z,101.40
2017-11-10T00:59:25.368Z,97.60
2017-11-10T01:00:25.400Z,95.10
2017-11-10T01:01:25.429Z,77.80
2017-11-10T01:02:25.460Z,74.80
2017-11-10T01:03:25.490Z,87.60
2017-11-10T01:04:25.518Z,84.50
2017-11-10T01:05:25.548Z,82.80
2017-11-10T01:06:25.580Z,81.50
2017-11-10T01:07:25.608Z,84.80
2017-11-10T01:08:25.638Z,87.60
2017-11-10T01:09:25.668Z,87.80
2017-11-10T01:10:25.698Z,84.10
2017-11-10T01:11:25.728Z,89.40
2017-11-10T01:12:25.759Z,86.80
2017-11-10T01:13:25.788Z,86.20
2017-11-10T01:14:25.817Z,97.00
2017-11-10T01:15:25.847Z,91.30
2017-11-10T01:16:25.877Z,82.10
2017-11-10T01:17:25.907Z,81.50
2017-11-10T01:18:25.938Z,83.70
2017-11-10T01:19:25.967Z,80.70
2017-11-10T01:20:25.997Z,79.20
2017-11-10T01:21:26.027Z,83.10
2017-11-10T01:22:26.056Z,80.50
2017-11-10T01:23:26.086Z,78.30
2017-11-10T01:24:26.115Z,74.70
2017-11-10T01:25:26.146Z,99.20
2017-11-10T01:26:26.176Z,102.70
2017-11-10T01:27:26.254Z,109.00
2017-11-10T01:28:26.236Z,114.20
2017-11-10T01:29:26.266Z,114.00
2017-11-10T01:30:26.295Z,107.60
2017-11-10T01:31:26.325Z,106.20
2017-11-10T01:32:26.354Z,120.40
2017-11-10T01:33:26.388Z,135.20
2017-11-10T01:34:26.415Z,123.60
2017-11-10T01:35:26.444Z,99.60
2017-11-10T01:36:26.473Z,99.50
2017-11-10T01:37:26.501Z,106.20
2017-11-10T01:38:26.533Z,112.10
2017-11-10T01:39:26.566Z,93.70
2017-11-10T01:40:26.591Z,91.80
2017-11-10T01:41:26.621Z,94.10
2017-11-10T01:42:26.652Z,97.60
2017-11-10T01:43:26.680Z,82.90
2017-11-10T01:44:26.713Z,80.60
2017-11-10T01:45:26.742Z,90.00
2017-11-10T01:46:26.772Z,78.00
2017-11-10T01:47:26.800Z,76.00
2017-11-10T01:48:26.829Z,66.90
2017-11-10T01:49:26.860Z,64.60
2017-11-10T01:50:26.890Z,76.70
2017-11-10T01:51:26.920Z,76.70
2017-11-10T01:52:26.950Z,73.70
2017-11-10T01:53:26.980Z,78.80
2017-11-10T01:54:27.008Z,81.80
2017-11-10T01:55:27.037Z,77.40
2017-11-10T01:56:27.068Z,74.30
2017-11-10T01:57:27.098Z,68.20
2017-11-10T01:58:27.127Z,71.30
2017-11-10T01:59:27.156Z,62.60
2017-11-10T02:00:27.185Z,65.80
2017-11-10T02:01:27.216Z,76.10
2017-11-10T02:02:27.245Z,80.80
2017-11-10T02:03:27.275Z,72.30
2017-11-10T02:04:27.304Z,67.60
2017-11-10T02:05:27.333Z,68.30
2017-11-10T02:06:27.363Z,67.30
2017-11-10T02:07:27.392Z,70.00
2017-11-10T02:08:27.472Z,69.80
2017-11-10T02:09:27.450Z,68.50
2017-11-10T02:10:27.481Z,65.90
2017-11-10T02:11:27.511Z,72.20
2017-11-10T02:12:27.541Z,59.10
2017-11-10T02:13:27.569Z,62.00
2017-11-10T02:14:27.599Z,63.40
2017-11-10T02:15:27.627Z,72.90
2017-11-10T02:16:27.656Z,73.30
2017-11-10T02:17:27.688Z,68.70
2017-11-10T02:18:27.717Z,71.30
2017-11-10T02:19:27.746Z,74.40
2017-11-10T02:20:27.776Z,70.30
2017-11-10T02:21:27.806Z,67.30
2017-11-10T02:22:27.835Z,77.10
2017-11-10T02:23:27.865Z,84.00
2017-11-10T02:24:27.894Z,77.00
2017-11-10T02:25:27.926Z,86.20
2017-11-10T02:26:27.953Z,82.40
2017-11-10T02:27:27.982Z,84.80
2017-11-10T02:28:28.012Z,90.10
2017-11-10T02:29:28.040Z,82.60
2017-11-10T02:30:28.090Z,78.90
2017-11-10T02:31:28.107Z,70.50
2017-11-10T02:32:28.131Z,80.60
2017-11-10T02:33:28.160Z,74.50
2017-11-10T02:34:28.189Z,77.60
2017-11-10T02:35:28.218Z,78.10
2017-11-10T02:36:28.249Z,73.90
2017-11-10T02:37:28.278Z,63.30
2017-11-10T02:38:28.311Z,66.00
2017-11-10T02:39:28.339Z,68.60
2017-11-10T02:40:28.367Z,80.10
2017-11-10T02:41:28.397Z,74.30
2017-11-10T02:42:28.426Z,70.20
2017-11-10T02:43:28.454Z,67.20
2017-11-10T02:44:28.484Z,64.40
2017-11-10T02:45:28.517Z,58.90
2017-11-10T02:46:28.564Z,67.20
2017-11-10T02:47:28.573Z,70.20
2017-11-10T02:48:28.605Z,69.50
2017-11-10T02:49:28.631Z,69.20
2017-11-10T02:50:28.663Z,72.20
2017-11-10T02:51:28.692Z,74.00
2017-11-10T02:52:28.722Z,93.80
2017-11-10T02:53:28.751Z,68.90
2017-11-10T02:54:28.831Z,77.60
2017-11-10T02:55:28.811Z,81.30
2017-11-10T02:56:28.840Z,74.20
2017-11-10T02:57:28.870Z,62.10
2017-11-10T02:58:28.900Z,71.00
2017-11-10T02:59:28.931Z,74.80
2017-11-10T03:00:28.959Z,81.50
2017-11-10T03:01:28.988Z,79.40
2017-11-10T03:02:29.017Z,87.10
2017-11-10T03:03:29.046Z,86.90
2017-11-10T03:04:29.075Z,79.00
2017-11-10T03:05:29.106Z,75.70
2017-11-10T03:06:29.136Z,74.30
2017-11-10T03:07:29.165Z,78.60
2017-11-10T03:08:29.195Z,71.00
2017-11-10T03:09:29.223Z,81.30
2017-11-10T03:10:29.253Z,83.60
2017-11-10T03:11:29.281Z,68.80
2017-11-10T03:12:29.310Z,70.10
2017-11-10T03:13:29.342Z,70.60
2017-11-10T03:14:29.371Z,65.30
2017-11-10T03:15:29.400Z,68.90
2017-11-10T03:16:29.429Z,60.80
2017-11-10T03:17:29.460Z,60.90
2017-11-10T03:18:29.488Z,60.80
2017-11-10T03:19:29.518Z,60.10
2017-11-10T03:20:29.598Z,54.90
2017-11-10T03:21:29.577Z,52.10
2017-11-10T03:22:29.620Z,48.10
2017-11-10T03:23:29.636Z,51.00
2017-11-10T03:24:29.667Z,61.70
2017-11-10T03:25:29.696Z,57.10
2017-11-10T03:26:29.727Z,57.60
2017-11-10T03:27:29.754Z,56.60
2017-11-10T03:28:29.783Z,57.50
2017-11-10T03:29:29.814Z,62.50
2017-11-10T03:30:29.899Z,72.10
2017-11-10T03:31:29.871Z,69.00
2017-11-10T03:32:29.900Z,74.10
2017-11-10T03:33:29.932Z,56.60
2017-11-10T03:34:29.961Z,56.80
2017-11-10T03:35:29.998Z,62.20
2017-11-10T03:36:30.019Z,59.80
2017-11-10T03:37:30.049Z,56.60
2017-11-10T03:38:30.085Z,65.50
2017-11-10T03:39:30.111Z,66.30
2017-11-10T03:40:30.188Z,59.10
2017-11-10T03:41:30.166Z,63.60
2017-11-10T03:42:30.197Z,60.00
2017-11-10T03:43:30.226Z,61.00
2017-11-10T03:44:30.255Z,62.50
2017-11-10T03:45:30.286Z,67.30
2017-11-10T03:46:30.315Z,62.30
2017-11-10T03:47:30.344Z,63.00
2017-11-10T03:48:30.373Z,61.70
2017-11-10T03:49:30.403Z,64.90
2017-11-10T03:50:30.433Z,68.50
2017-11-10T03:51:30.461Z,73.50
2017-11-10T03:52:30.491Z,61.90
2017-11-10T03:53:30.534Z,66.40
2017-11-10T03:54:30.550Z,55.50
2017-11-10T03:55:30.602Z,57.40
2017-11-10T03:56:30.609Z,62.10
2017-11-10T03:57:30.640Z,54.60
2017-11-10T03:58:30.667Z,51.30
2017-11-10T03:59:30.697Z,47.40
2017-11-10T04:00:30.729Z,48.60
2017-11-10T04:01:30.757Z,52.70
2017-11-10T04:02:30.787Z,51.80
2017-11-10T04:03:30.816Z,51.30
2017-11-10T04:04:30.845Z,58.00
2017-11-10T04:05:30.874Z,53.00
2017-11-10T04:06:30.903Z,55.20
2017-11-10T04:07:30.932Z,55.90
2017-11-10T04:08:30.963Z,53.60
2017-11-10T04:09:30.993Z,53.10
2017-11-10T04:10:31.022Z,48.10
2017-11-10T04:11:31.049Z,51.20
2017-11-10T04:12:31.089Z,57.00
2017-11-10T04:13:31.110Z,55.30
2017-11-10T04:14:31.140Z,51.00
2017-11-10T04:15:31.168Z,51.50
2017-11-10T04:16:31.198Z,53.90
2017-11-10T04:17:31.228Z,49.80
2017-11-10T04:18:31.256Z,52.80
2017-11-10T04:19:31.286Z,45.80
2017-11-10T04:20:31.314Z,53.50
2017-11-10T04:21:31.344Z,53.70
2017-11-10T04:22:31.376Z,54.20
2017-11-10T04:23:31.404Z,59.70
2017-11-10T04:24:31.433Z,46.10
2017-11-10T04:25:31.460Z,53.60
2017-11-10T04:26:31.513Z,56.10
2017-11-10T04:27:31.520Z,64.10
2017-11-10T04:28:31.548Z,54.90
2017-11-10T04:29:31.581Z,57.10
2017-11-10T04:30:31.609Z,55.20
2017-11-10T04:31:31.637Z,62.50
2017-11-10T04:32:31.672Z,61.50
2017-11-10T04:33:31.699Z,65.30
2017-11-10T04:34:31.725Z,68.10
2017-11-10T04:35:31.758Z,63.90
2017-11-10T04:36:31.783Z,57.70
2017-11-10T04:37:31.813Z,67.20
2017-11-10T04:38:31.843Z,59.00
2017-11-10T04:39:31.873Z,56.90
2017-11-10T04:40:31.902Z,66.80
2017-11-10T04:41:31.934Z,65.10
2017-11-10T04:42:31.959Z,67.70
2017-11-10T04:43:31.988Z,65.70
2017-11-10T04:44:32.018Z,63.00
2017-11-10T04:45:32.048Z,65.20
2017-11-10T04:46:32.078Z,66.80
2017-11-10T04:47:32.106Z,66.40
2017-11-10T04:48:32.136Z,66.40
2017-11-10T04:49:32.164Z,60.00
2017-11-10T04:50:32.195Z,59.10
2017-11-10T04:51:32.223Z,57.10
2017-11-10T04:52:32.253Z,62.10
2017-11-10T04:53:32.283Z,60.50
2017-11-10T04:54:32.313Z,62.10
2017-11-10T04:55:32.342Z,59.90
2017-11-10T04:56:32.375Z,66.20
2017-11-10T04:57:32.401Z,65.20
2017-11-10T04:58:32.429Z,67.60
2017-11-10T04:59:32.458Z,72.70
2017-11-10T05:00:32.494Z,68.30
2017-11-10T05:01:32.518Z,63.10
2017-11-10T05:02:32.546Z,62.60
2017-11-10T05:03:32.575Z,62.50
2017-11-10T05:04:32.604Z,66.20
2017-11-10T05:05:32.639Z,64.00
2017-11-10T05:06:32.664Z,64.90
2017-11-10T05:07:32.691Z,70.80
2017-11-10T05:08:32.722Z,61.50
2017-11-10T05:09:32.751Z,59.70
2017-11-10T05:10:32.782Z,62.10
2017-11-10T05:11:32.809Z,64.40
2017-11-10T05:12:32.839Z,62.00
2017-11-10T05:13:32.868Z,60.20
2017-11-10T05:14:32.901Z,66.60
2017-11-10T05:15:32.925Z,61.80
2017-11-10T05:16:32.956Z,59.40
2017-11-10T05:17:32.988Z,61.30
2017-11-10T05:18:33.016Z,61.10
2017-11-10T05:19:33.042Z,61.50
2017-11-10T05:20:33.074Z,60.80
2017-11-10T05:21:33.101Z,64.50
2017-11-10T05:22:33.132Z,61.50
2017-11-10T05:23:33.161Z,56.50
2017-11-10T05:24:33.192Z,57.80
2017-11-10T05:25:33.220Z,55.20
2017-11-10T05:26:33.249Z,56.90
2017-11-10T05:27:33.277Z,59.70
2017-11-10T05:28:33.311Z,57.90
2017-11-10T05:29:33.337Z,53.60
2017-11-10T05:30:33.367Z,49.10
2017-11-10T05:31:33.395Z,51.70
2017-11-10T05:32:33.426Z,52.20
2017-11-10T05:33:33.455Z,51.30
2017-11-10T05:34:33.483Z,50.10
2017-11-10T05:35:33.511Z,54.70
2017-11-10T05:36:33.542Z,53.40
2017-11-10T05:37:33.571Z,53.10
2017-11-10T05:38:33.601Z,53.10
2017-11-10T05:39:33.629Z,49.80
2017-11-10T05:40:33.658Z,56.80
2017-11-10T05:41:33.690Z,54.10
2017-11-10T05:42:33.724Z,54.00
2017-11-10T05:43:33.747Z,49.80
2017-11-10T05:44:33.826Z,51.80
2017-11-10T05:45:33.807Z,48.70
2017-11-10T05:46:33.836Z,48.30
2017-11-10T05:47:33.863Z,47.00
2017-11-10T05:48:33.894Z,49.50
2017-11-10T05:49:33.924Z,46.30
2017-11-10T05:50:33.953Z,46.40
2017-11-10T05:51:33.980Z,47.00
2017-11-10T05:52:34.010Z,45.60
2017-11-10T05:53:34.041Z,41.90
2017-11-10T05:54:34.071Z,42.80
2017-11-10T05:55:34.100Z,42.40
2017-11-10T05:56:34.129Z,45.50
2017-11-10T05:57:34.158Z,43.80
2017-11-10T05:58:34.187Z,46.80
2017-11-10T05:59:34.216Z,44.90
2017-11-10T06:00:34.246Z,41.80
2017-11-10T06:01:34.274Z,43.70
2017-11-10T06:02:34.304Z,43.50
2017-11-10T06:03:34.332Z,40.90
2017-11-10T06:04:34.362Z,44.50
2017-11-10T06:05:34.393Z,42.20
2017-11-10T06:06:34.421Z,43.60
2017-11-10T06:07:34.449Z,43.70
2017-11-10T06:08:34.479Z,40.50
2017-11-10T06:09:34.507Z,40.90
2017-11-10T06:10:34.538Z,40.80
2017-11-10T06:11:34.566Z,43.90
2017-11-10T06:12:34.635Z,46.60
2017-11-10T06:13:34.624Z,46.00
2017-11-10T06:14:34.653Z,47.90
2017-11-10T06:15:34.732Z,42.70
2017-11-10T06:16:34.710Z,42.20
2017-11-10T06:17:34.740Z,42.60
2017-11-10T06:18:34.768Z,41.80
2017-11-10T06:19:34.798Z,44.20
2017-11-10T06:20:34.826Z,47.70
2017-11-10T06:21:34.856Z,48.00
2017-11-10T06:22:34.887Z,44.20
2017-11-10T06:23:34.914Z,46.70
2017-11-10T06:24:34.942Z,44.20
2017-11-10T06:25:34.972Z,45.60
2017-11-10T06:26:35.001Z,40.50
2017-11-10T06:27:35.031Z,41.30
2017-11-10T06:28:35.060Z,41.10
2017-11-10T06:29:35.088Z,43.40
2017-11-10T06:30:35.119Z,45.40
2017-11-10T06:31:35.146Z,41.30
2017-11-10T06:32:35.176Z,44.00
2017-11-10T06:33:35.203Z,40.30
2017-11-10T06:34:35.232Z,44.50
2017-11-10T06:35:35.262Z,42.00
2017-11-10T06:36:35.291Z,43.90
2017-11-10T06:37:35.319Z,43.40
2017-11-10T06:38:35.350Z,46.80
2017-11-10T06:39:35.377Z,43.30
2017-11-10T06:40:35.407Z,40.60
2017-11-10T06:41:35.535Z,40.50
2017-11-10T06:42:35.467Z,39.40
2017-11-10T06:43:35.493Z,37.50
2017-11-10T06:44:35.522Z,42.80
2017-11-10T06:45:35.552Z,39.50
2017-11-10T06:46:35.581Z,39.40
2017-11-10T06:47:35.612Z,34.40
2017-11-10T06:48:35.640Z,34.40
2017-11-10T06:49:35.667Z,37.30
2017-11-10T06:50:35.696Z,32.50
2017-11-10T06:51:35.724Z,34.00
2017-11-10T06:52:35.754Z,29.80
2017-11-10T06:53:35.782Z,28.20
2017-11-10T06:54:35.810Z,28.20
2017-11-10T06:55:35.840Z,30.30
2017-11-10T06:56:35.918Z,32.70
2017-11-10T06:57:35.899Z,36.80
2017-11-10T06:58:35.926Z,33.40
2017-11-10T06:59:35.954Z,29.80
2017-11-10T07:00:35.984Z,34.50
2017-11-10T07:01:36.011Z,32.30
2017-11-10T07:02:36.041Z,30.30
2017-11-10T07:03:36.068Z,32.50
2017-11-10T07:04:36.098Z,30.70
2017-11-10T07:05:36.128Z,28.30
2017-11-10T07:06:36.160Z,29.70
2017-11-10T07:07:36.186Z,29.80
2017-11-10T07:08:36.216Z,29.50
2017-11-10T07:09:36.241Z,29.50
2017-11-10T07:10:36.270Z,29.20
2017-11-10T07:11:36.298Z,27.40
2017-11-10T07:12:36.327Z,27.80
2017-11-10T07:13:36.356Z,27.70
2017-11-10T07:14:36.385Z,28.00
2017-11-10T07:15:36.413Z,30.60
2017-11-10T07:16:36.444Z,35.60
2017-11-10T07:17:36.472Z,33.40
2017-11-10T07:18:36.501Z,28.90
2017-11-10T07:19:36.529Z,29.20
2017-11-10T07:20:36.558Z,29.10
2017-11-10T07:21:36.587Z,27.60
2017-11-10T07:22:36.615Z,24.80
2017-11-10T07:23:36.644Z,29.20
2017-11-10T07:24:36.674Z,22.00
2017-11-10T07:25:36.701Z,24.30
2017-11-10T07:26:36.732Z,24.30
2017-11-10T07:27:36.760Z,29.00
2017-11-10T07:28:36.790Z,26.40
2017-11-10T07:29:36.818Z,24.90
2017-11-10T07:30:36.855Z,25.90
2017-11-10T07:31:36.875Z,26.10
2017-11-10T07:32:36.906Z,26.40
2017-11-10T07:33:36.934Z,26.90
2017-11-10T07:34:36.967Z,26.30
2017-11-10T07:35:36.992Z,24.80
2017-11-10T07:36:37.022Z,26.90
2017-11-10T07:37:37.051Z,27.10
2017-11-10T07:38:37.080Z,21.10
2017-11-10T07:39:37.108Z,21.60
2017-11-10T07:40:37.164Z,21.60
2017-11-10T07:41:37.167Z,20.20
2017-11-10T07:42:37.197Z,19.80
2017-11-10T07:43:37.225Z,20.60
2017-11-10T07:44:37.254Z,21.00
2017-11-10T07:45:37.284Z,18.90
2017-11-10T07:46:37.313Z,18.40
2017-11-10T07:47:37.340Z,19.60
2017-11-10T07:48:37.371Z,18.20
2017-11-10T07:49:37.401Z,18.40
2017-11-10T07:50:37.432Z,18.00
2017-11-10T07:51:37.463Z,18.20
2017-11-10T07:52:37.489Z,18.20
2017-11-10T07:53:37.518Z,22.80
2017-11-10T07:54:37.547Z,19.70
2017-11-10T07:55:37.578Z,21.00
2017-11-10T07:56:37.605Z,21.80
2017-11-10T07:57:37.638Z,21.70
2017-11-10T07:58:37.666Z,23.20
2017-11-10T07:59:37.693Z,23.00
2017-11-10T08:00:37.721Z,22.50
2017-11-10T08:01:37.751Z,22.00
2017-11-10T08:02:37.781Z,19.00
2017-11-10T08:03:37.811Z,18.40
2017-11-10T08:04:37.838Z,17.50
2017-11-10T08:05:37.870Z,18.20
2017-11-10T08:06:37.898Z,17.20
2017-11-10T08:07:37.928Z,17.50
2017-11-10T08:08:38.008Z,16.50
2017-11-10T08:09:37.992Z,16.30
2017-11-10T08:10:38.016Z,16.60
2017-11-10T08:11:38.044Z,17.10
2017-11-10T08:12:38.074Z,16.10
2017-11-10T08:13:38.104Z,16.60
2017-11-10T08:14:38.134Z,15.90
2017-11-10T08:15:38.169Z,18.20
2017-11-10T08:16:38.192Z,17.10
2017-11-10T08:17:38.221Z,15.80
2017-11-10T08:18:38.250Z,16.90
2017-11-10T08:19:38.279Z,16.50
2017-11-10T08:20:38.316Z,15.70
2017-11-10T08:21:38.338Z,17.50
2017-11-10T08:22:38.369Z,17.50
2017-11-10T08:23:38.396Z,18.00
2017-11-10T08:24:38.425Z,17.70
2017-11-10T08:25:38.456Z,18.20
2017-11-10T08:26:38.485Z,16.90
2017-11-10T08:27:38.512Z,18.60
2017-11-10T08:28:38.542Z,18.00
2017-11-10T08:29:38.574Z,18.70
2017-11-10T08:30:38.610Z,17.60
2017-11-10T08:31:38.629Z,18.20
2017-11-10T08:32:38.659Z,17.40
2017-11-10T08:33:38.690Z,17.20
2017-11-10T08:34:38.722Z,19.20
2017-11-10T08:35:38.748Z,24.90
2017-11-10T08:36:38.821Z,22.80
2017-11-10T08:37:38.859Z,21.10
2017-11-10T08:38:38.886Z,23.60
2017-11-10T08:39:38.865Z,18.60
2017-11-10T08:40:38.896Z,16.70
2017-11-10T08:41:38.924Z,17.50
2017-11-10T08:42:38.954Z,17.50
2017-11-10T08:43:38.984Z,18.10
2017-11-10T08:44:39.049Z,15.10
2017-11-10T08:45:39.042Z,16.70
2017-11-10T08:46:39.072Z,17.00
2017-11-10T08:47:39.103Z,18.20
2017-11-10T08:48:39.135Z,17.10
2017-11-10T08:49:39.162Z,17.80
2017-11-10T08:50:39.192Z,16.50
2017-11-10T08:51:39.221Z,15.30
2017-11-10T08:52:39.259Z,16.50
2017-11-10T08:53:39.279Z,15.70
2017-11-10T08:54:39.309Z,15.40
2017-11-10T08:55:39.338Z,15.80
2017-11-10T08:56:39.399Z,16.80
2017-11-10T08:57:39.398Z,18.60
2017-11-10T08:58:39.429Z,18.90
2017-11-10T08:59:39.456Z,18.80
2017-11-10T09:00:39.486Z,18.20
2017-11-10T09:01:39.520Z,14.30
2017-11-10T09:02:39.548Z,15.20
2017-11-10T09:03:39.576Z,14.90
2017-11-10T09:04:39.604Z,13.90
2017-11-10T09:05:39.638Z,15.00
2017-11-10T09:06:39.665Z,14.30
2017-11-10T09:07:39.693Z,15.30
2017-11-10T09:08:39.723Z,14.60
2017-11-10T09:09:39.752Z,14.80
2017-11-10T09:10:39.783Z,14.10
2017-11-10T09:11:39.813Z,15.10
2017-11-10T09:12:39.845Z,15.60
2017-11-10T09:13:39.871Z,15.10
2017-11-10T09:14:39.902Z,14.50
2017-11-10T09:15:39.930Z,14.30
2017-11-10T09:16:39.961Z,16.10
2017-11-10T09:17:39.991Z,14.70
2017-11-10T09:18:40.022Z,15.50
2017-11-10T09:19:40.052Z,14.90
2017-11-10T09:20:40.080Z,14.80
2017-11-10T09:21:40.109Z,15.60
2017-11-10T09:22:40.140Z,15.30
2017-11-10T09:23:40.169Z,16.10
2017-11-10T09:24:40.199Z,15.00
2017-11-10T09:25:40.278Z,16.40
2017-11-10T09:26:40.258Z,15.30
2017-11-10T09:27:40.286Z,14.80
2017-11-10T09:28:40.323Z,14.60
2017-11-10T09:29:40.347Z,14.70
2017-11-10T09:30:40.379Z,15.80
2017-11-10T09:31:40.405Z,17.10
2017-11-10T09:32:40.438Z,15.60
2017-11-10T09:33:40.467Z,15.90
2017-11-10T09:34:40.496Z,16.10
2017-11-10T09:35:40.526Z,16.10
2017-11-10T09:36:40.705Z,16.40
2017-11-10T09:37:40.586Z,15.90
2017-11-10T09:38:40.617Z,15.90
2017-11-10T09:39:40.655Z,18.60
2017-11-10T09:40:40.674Z,15.90
2017-11-10T09:41:40.706Z,16.70
2017-11-10T09:42:40.736Z,16.20
2017-11-10T09:43:40.765Z,16.80
2017-11-10T09:44:40.793Z,16.50
2017-11-10T09:45:40.824Z,16.80
2017-11-10T09:46:40.857Z,15.90
2017-11-10T09:47:40.882Z,15.60
2017-11-10T09:48:40.912Z,15.50
2017-11-10T09:49:40.945Z,15.10
2017-11-10T09:50:40.973Z,16.00
2017-11-10T09:51:41.013Z,15.70
2017-11-10T09:52:41.031Z,15.20
2017-11-10T09:53:41.064Z,15.10
2017-11-10T09:54:41.093Z,15.10
2017-11-10T09:55:41.124Z,12.70
2017-11-10T09:56:41.152Z,14.00
2017-11-10T09:57:41.182Z,14.50
2017-11-10T09:58:41.211Z,15.20
2017-11-10T09:59:41.242Z,14.00
2017-11-10T10:00:41.272Z,14.50
2017-11-10T10:01:41.303Z,13.00
2017-11-10T10:02:41.332Z,14.40
2017-11-10T10:03:41.361Z,15.20
2017-11-10T10:04:41.390Z,13.80
2017-11-10T10:05:41.421Z,13.10
2017-11-10T10:06:41.452Z,13.70
2017-11-10T10:07:41.481Z,13.50
2017-11-10T10:08:41.510Z,13.20
2017-11-10T10:09:41.541Z,13.30
2017-11-10T10:10:41.570Z,14.00
2017-11-10T10:11:41.599Z,13.40
2017-11-10T10:12:41.630Z,14.40
2017-11-10T10:13:41.662Z,14.60
2017-11-10T10:14:41.689Z,15.60
2017-11-10T10:15:41.719Z,17.50
2017-11-10T10:16:41.757Z,16.20
2017-11-10T10:17:41.777Z,16.00
2017-11-10T10:18:41.810Z,14.80
2017-11-10T10:19:41.839Z,14.90
2017-11-10T10:20:41.868Z,15.60
2017-11-10T10:21:41.898Z,16.80
2017-11-10T10:22:41.927Z,16.10
2017-11-10T10:23:41.958Z,14.70
2017-11-10T10:24:41.987Z,14.60
2017-11-10T10:25:42.017Z,14.50
2017-11-10T10:26:42.053Z,17.20
2017-11-10T10:27:42.077Z,17.70
2017-11-10T10:28:42.107Z,20.20
2017-11-10T10:29:42.137Z,15.40
2017-11-10T10:30:42.167Z,16.20
2017-11-10T10:31:42.196Z,16.00
2017-11-10T10:32:42.226Z,16.30
2017-11-10T10:33:42.257Z,16.50
2017-11-10T10:34:42.287Z,17.70
2017-11-10T10:35:42.317Z,17.40
2017-11-10T10:36:42.345Z,15.80
2017-11-10T10:37:42.377Z,15.90
2017-11-10T10:38:42.409Z,16.40
2017-11-10T10:39:42.439Z,16.30
2017-11-10T10:40:42.465Z,15.70
2017-11-10T10:41:42.507Z,17.50
2017-11-10T10:42:42.526Z,18.30
2017-11-10T10:43:42.556Z,17.70
2017-11-10T10:44:42.587Z,17.20
2017-11-10T10:45:42.616Z,18.40
2017-11-10T10:46:42.646Z,18.20
2017-11-10T10:47:42.727Z,18.30
2017-11-10T10:48:42.704Z,17.70
2017-11-10T10:49:42.737Z,19.20
2017-11-10T10:50:42.766Z,18.50
2017-11-10T10:51:42.819Z,19.00
2017-11-10T10:52:42.826Z,19.40
2017-11-10T10:53:42.867Z,20.30
2017-11-10T10:54:42.887Z,21.20
2017-11-10T10:55:42.917Z,20.90
2017-11-10T10:56:42.946Z,19.30
2017-11-10T10:57:42.997Z,19.70
2017-11-10T10:58:43.012Z,21.70
2017-11-10T10:59:43.036Z,20.20
2017-11-10T11:00:43.068Z,21.50
2017-11-10T11:01:43.098Z,19.50
2017-11-10T11:02:43.129Z,20.50
2017-11-10T11:03:43.158Z,20.60
2017-11-10T11:04:43.188Z,19.60
2017-11-10T11:05:43.218Z,22.40
2017-11-10T11:06:43.250Z,19.50
2017-11-10T11:07:43.279Z,20.00
2017-11-10T11:08:43.309Z,19.10
2017-11-10T11:09:43.340Z,21.50
2017-11-10T11:10:43.370Z,22.00
2017-11-10T11:11:43.401Z,21.70
2017-11-10T11:12:43.429Z,23.00
2017-11-10T11:13:43.460Z,23.00
2017-11-10T11:14:43.490Z,23.40
2017-11-10T11:15:43.519Z,22.00
2017-11-10T11:16:43.550Z,23.20
2017-11-10T11:17:43.581Z,20.60
2017-11-10T11:18:43.611Z,22.80
2017-11-10T11:19:43.640Z,24.60
2017-11-10T11:20:43.671Z,27.30
2017-11-10T11:21:43.702Z,24.60
2017-11-10T11:22:43.732Z,24.80
2017-11-10T11:23:43.760Z,23.30
2017-11-10T11:24:43.791Z,23.30
2017-11-10T11:25:43.821Z,26.80
2017-11-10T11:26:43.852Z,25.00
2017-11-10T11:27:43.881Z,23.90
2017-11-10T11:28:43.911Z,25.70
2017-11-10T11:29:43.942Z,23.90
2017-11-10T11:30:43.971Z,25.40
2017-11-10T11:31:44.000Z,23.40
2017-11-10T11:32:44.029Z,25.00
2017-11-10T11:33:44.062Z,25.30
2017-11-10T11:34:44.093Z,23.40
2017-11-10T11:35:44.121Z,24.10
2017-11-10T11:36:44.151Z,22.00
2017-11-10T11:37:44.181Z,21.70
2017-11-10T11:38:44.212Z,21.90
2017-11-10T11:39:44.241Z,22.90
2017-11-10T11:40:44.271Z,26.60
2017-11-10T11:41:44.300Z,26.70
2017-11-10T11:42:44.330Z,27.10
2017-11-10T11:43:44.361Z,24.70
2017-11-10T11:44:44.392Z,27.00
2017-11-10T11:45:44.422Z,27.80
2017-11-10T11:46:44.452Z,25.80
2017-11-10T11:47:44.482Z,25.50
2017-11-10T11:48:44.512Z,28.00
2017-11-10T11:49:44.541Z,25.00
2017-11-10T11:50:44.574Z,26.80
2017-11-10T11:51:44.603Z,27.20
2017-11-10T11:52:44.639Z,28.30
2017-11-10T11:53:44.673Z,30.80
2017-11-10T11:54:44.693Z,26.10
2017-11-10T11:55:44.752Z,26.50
2017-11-10T11:56:44.754Z,29.90
2017-11-10T11:57:44.782Z,24.90
2017-11-10T11:58:44.815Z,26.20
2017-11-10T11:59:44.842Z,26.70
2017-11-10T12:00:44.873Z,24.70
2017-11-10T12:01:44.904Z,29.40
2017-11-10T12:02:44.935Z,26.90
2017-11-10T12:03:44.969Z,23.10
2017-11-10T12:04:44.995Z,21.50
2017-11-10T12:05:45.025Z,27.60
2017-11-10T12:06:45.055Z,32.40
2017-11-10T12:07:45.083Z,27.90
2017-11-10T12:08:45.120Z,28.20
2017-11-10T12:09:45.145Z,27.60
2017-11-10T12:10:45.200Z,25.70
2017-11-10T12:11:45.208Z,25.10
2017-11-10T12:12:45.234Z,24.50
2017-11-10T12:13:45.262Z,28.20
2017-11-10T12:14:45.293Z,27.80
2017-11-10T12:15:45.322Z,28.90
2017-11-10T12:16:45.354Z,36.90
2017-11-10T12:17:45.384Z,43.40
2017-11-10T12:18:45.416Z,31.10
2017-11-10T12:19:45.443Z,29.60
2017-11-10T12:20:45.473Z,27.30
2017-11-10T12:21:45.504Z,21.00
2017-11-10T12:22:45.534Z,25.40
2017-11-10T12:23:45.563Z,29.20
2017-11-10T12:24:45.594Z,31.00
2017-11-10T12:25:45.624Z,24.60
2017-11-10T12:26:45.653Z,33.50
2017-11-10T12:27:45.685Z,34.00
2017-11-10T12:28:45.714Z,39.70
2017-11-10T12:29:45.745Z,40.50
2017-11-10T12:30:45.775Z,36.80
2017-11-10T12:31:45.805Z,33.60
2017-11-10T12:32:45.836Z,35.30
2017-11-10T12:33:45.865Z,27.60
2017-11-10T12:34:45.896Z,27.60
2017-11-10T12:35:45.925Z,38.10
2017-11-10T12:36:45.958Z,25.10
2017-11-10T12:37:45.984Z,26.70
2017-11-10T12:38:46.015Z,26.00
2017-11-10T12:39:46.044Z,26.60
2017-11-10T12:40:46.076Z,25.20
2017-11-10T12:41:46.105Z,25.70
2017-11-10T12:42:46.136Z,25.70
2017-11-10T12:43:46.164Z,25.80
2017-11-10T12:44:46.195Z,29.20
2017-11-10T12:45:46.225Z,25.00
2017-11-10T12:46:46.256Z,30.40
2017-11-10T12:47:46.285Z,28.20
2017-11-10T12:48:46.316Z,28.80
2017-11-10T12:49:46.345Z,31.60
2017-11-10T12:50:46.376Z,25.40
2017-11-10T12:51:46.406Z,26.70
2017-11-10T12:52:46.434Z,27.50